sensor_id;sensor_type;location;lat;lon;timestamp;P1;durP1;ratioP1;P2;durP2;ratioP2
29382;SDS011;16365;51.598;7.668;2023-05-07T00:00:17;5.80;;;4.75;;
29382;SDS011;16365;51.598;7.668;2023-05-07T00:02:45;6.03;;;4.93;;
29382;SDS011;16365;51.598;7.668;2023-05-07T00:05:13;8.27;;;4.93;;
29382;SDS011;16365;51.598;7.668;2023-05-07T00:07:41;6.67;;;4.70;;
29382;SDS011;16365;51.598;7.668;2023-05-07T00:10:08;8.13;;;5.00;;
29382;SDS011;16365;51.598;7.668;2023-05-07T00:12:35;9.15;;;4.22;;
29382;SDS011;16365;51.598;7.668;2023-05-07T00:15:02;6.30;;;4.63;;
29382;SDS011;16365;51.598;7.668;2023-05-07T00:17:29;7.47;;;4.80;;
29382;SDS011;16365;51.598;7.668;2023-05-07T00:19:57;9.15;;;4.82;;
29382;SDS011;16365;51.598;7.668;2023-05-07T00:22:24;10.25;;;4.60;;
29382;SDS011;16365;51.598;7.668;2023-05-07T00:24:53;7.22;;;4.38;;
29382;SDS011;16365;51.598;7.668;2023-05-07T00:27:19;7.32;;;4.40;;
29382;SDS011;16365;51.598;7.668;2023-05-07T00:29:46;6.55;;;4.25;;
29382;SDS011;16365;51.598;7.668;2023-05-07T00:32:12;6.10;;;4.47;;
29382;SDS011;16365;51.598;7.668;2023-05-07T00:34:39;9.68;;;4.70;;
29382;SDS011;16365;51.598;7.668;2023-05-07T00:37:06;5.57;;;4.10;;
29382;SDS011;16365;51.598;7.668;2023-05-07T00:39:33;6.55;;;4.65;;
29382;SDS011;16365;51.598;7.668;2023-05-07T00:42:00;6.97;;;4.85;;
29382;SDS011;16365;51.598;7.668;2023-05-07T00:44:27;10.20;;;5.15;;
29382;SDS011;16365;51.598;7.668;2023-05-07T00:46:54;6.13;;;5.07;;
29382;SDS011;16365;51.598;7.668;2023-05-07T00:49:22;6.80;;;4.68;;
29382;SDS011;16365;51.598;7.668;2023-05-07T00:51:58;7.28;;;4.85;;
29382;SDS011;16365;51.598;7.668;2023-05-07T00:54:26;11.95;;;5.05;;
29382;SDS011;16365;51.598;7.668;2023-05-07T00:56:53;11.05;;;4.80;;
29382;SDS011;16365;51.598;7.668;2023-05-07T00:59:20;5.68;;;4.55;;
29382;SDS011;16365;51.598;7.668;2023-05-07T01:01:46;10.07;;;5.03;;
29382;SDS011;16365;51.598;7.668;2023-05-07T01:04:13;9.85;;;5.07;;
29382;SDS011;16365;51.598;7.668;2023-05-07T01:06:40;11.25;;;4.70;;
29382;SDS011;16365;51.598;7.668;2023-05-07T01:09:08;7.75;;;5.05;;
29382;SDS011;16365;51.598;7.668;2023-05-07T01:11:35;7.45;;;4.68;;
29382;SDS011;16365;51.598;7.668;2023-05-07T01:14:01;7.90;;;4.97;;
29382;SDS011;16365;51.598;7.668;2023-05-07T01:16:28;9.43;;;5.25;;
29382;SDS011;16365;51.598;7.668;2023-05-07T01:18:55;9.15;;;5.40;;
29382;SDS011;16365;51.598;7.668;2023-05-07T01:21:25;8.00;;;5.25;;
29382;SDS011;16365;51.598;7.668;2023-05-07T01:23:53;9.38;;;5.53;;
29382;SDS011;16365;51.598;7.668;2023-05-07T01:26:21;6.43;;;4.75;;
29382;SDS011;16365;51.598;7.668;2023-05-07T01:28:48;6.28;;;5.10;;
29382;SDS011;16365;51.598;7.668;2023-05-07T01:31:15;9.07;;;5.78;;
29382;SDS011;16365;51.598;7.668;2023-05-07T01:33:43;9.30;;;5.75;;
29382;SDS011;16365;51.598;7.668;2023-05-07T01:36:12;11.80;;;5.43;;
29382;SDS011;16365;51.598;7.668;2023-05-07T01:38:39;8.63;;;4.70;;
29382;SDS011;16365;51.598;7.668;2023-05-07T01:41:07;9.77;;;5.18;;
29382;SDS011;16365;51.598;7.668;2023-05-07T01:43:34;6.75;;;5.40;;
29382;SDS011;16365;51.598;7.668;2023-05-07T01:46:01;8.98;;;5.57;;
29382;SDS011;16365;51.598;7.668;2023-05-07T01:48:28;7.93;;;6.25;;
29382;SDS011;16365;51.598;7.668;2023-05-07T01:50:55;11.48;;;6.38;;
29382;SDS011;16365;51.598;7.668;2023-05-07T01:53:22;9.18;;;5.68;;
29382;SDS011;16365;51.598;7.668;2023-05-07T01:55:49;6.78;;;5.60;;
29382;SDS011;16365;51.598;7.668;2023-05-07T01:58:15;7.35;;;5.93;;
29382;SDS011;16365;51.598;7.668;2023-05-07T02:00:42;6.35;;;5.03;;
29382;SDS011;16365;51.598;7.668;2023-05-07T02:03:08;8.38;;;5.80;;
29382;SDS011;16365;51.598;7.668;2023-05-07T02:05:35;6.80;;;5.75;;
29382;SDS011;16365;51.598;7.668;2023-05-07T02:08:02;7.45;;;5.57;;
29382;SDS011;16365;51.598;7.668;2023-05-07T02:10:28;10.00;;;6.53;;
29382;SDS011;16365;51.598;7.668;2023-05-07T02:12:55;9.18;;;5.57;;
29382;SDS011;16365;51.598;7.668;2023-05-07T02:15:21;8.90;;;6.07;;
29382;SDS011;16365;51.598;7.668;2023-05-07T02:17:57;9.05;;;6.22;;
29382;SDS011;16365;51.598;7.668;2023-05-07T02:20:30;10.70;;;5.43;;
29382;SDS011;16365;51.598;7.668;2023-05-07T02:22:57;9.48;;;5.72;;
29382;SDS011;16365;51.598;7.668;2023-05-07T02:25:23;6.57;;;5.35;;
29382;SDS011;16365;51.598;7.668;2023-05-07T02:27:50;7.90;;;5.72;;
29382;SDS011;16365;51.598;7.668;2023-05-07T02:30:16;8.18;;;5.57;;
29382;SDS011;16365;51.598;7.668;2023-05-07T02:32:43;12.60;;;6.07;;
29382;SDS011;16365;51.598;7.668;2023-05-07T02:35:09;7.05;;;5.35;;
29382;SDS011;16365;51.598;7.668;2023-05-07T02:37:36;9.25;;;5.90;;
29382;SDS011;16365;51.598;7.668;2023-05-07T02:40:03;8.13;;;5.85;;
29382;SDS011;16365;51.598;7.668;2023-05-07T02:42:30;7.22;;;5.78;;
29382;SDS011;16365;51.598;7.668;2023-05-07T02:44:57;8.60;;;5.78;;
29382;SDS011;16365;51.598;7.668;2023-05-07T02:47:26;8.63;;;6.40;;
29382;SDS011;16365;51.598;7.668;2023-05-07T02:49:55;11.32;;;7.15;;
29382;SDS011;16365;51.598;7.668;2023-05-07T02:52:22;7.55;;;5.93;;
29382;SDS011;16365;51.598;7.668;2023-05-07T02:54:48;8.13;;;5.88;;
29382;SDS011;16365;51.598;7.668;2023-05-07T02:57:14;9.02;;;5.68;;
29382;SDS011;16365;51.598;7.668;2023-05-07T02:59:41;6.88;;;5.35;;
29382;SDS011;16365;51.598;7.668;2023-05-07T03:02:08;7.82;;;6.07;;
29382;SDS011;16365;51.598;7.668;2023-05-07T03:04:36;8.75;;;5.78;;
29382;SDS011;16365;51.598;7.668;2023-05-07T03:07:02;9.13;;;5.93;;
29382;SDS011;16365;51.598;7.668;2023-05-07T03:09:28;13.27;;;5.68;;
29382;SDS011;16365;51.598;7.668;2023-05-07T03:11:56;10.00;;;5.97;;
29382;SDS011;16365;51.598;7.668;2023-05-07T03:14:22;9.80;;;5.70;;
29382;SDS011;16365;51.598;7.668;2023-05-07T03:16:49;10.63;;;5.68;;
29382;SDS011;16365;51.598;7.668;2023-05-07T03:19:16;9.50;;;6.40;;
29382;SDS011;16365;51.598;7.668;2023-05-07T03:21:43;7.22;;;5.50;;
29382;SDS011;16365;51.598;7.668;2023-05-07T03:24:09;7.25;;;5.85;;
29382;SDS011;16365;51.598;7.668;2023-05-07T03:26:35;9.15;;;5.65;;
29382;SDS011;16365;51.598;7.668;2023-05-07T03:29:02;6.35;;;5.43;;
29382;SDS011;16365;51.598;7.668;2023-05-07T03:31:28;9.20;;;5.78;;
29382;SDS011;16365;51.598;7.668;2023-05-07T03:33:56;9.25;;;5.47;;
29382;SDS011;16365;51.598;7.668;2023-05-07T03:36:23;8.75;;;5.90;;
29382;SDS011;16365;51.598;7.668;2023-05-07T03:38:51;7.30;;;5.68;;
29382;SDS011;16365;51.598;7.668;2023-05-07T03:41:17;12.20;;;5.88;;
29382;SDS011;16365;51.598;7.668;2023-05-07T03:43:46;9.40;;;6.22;;
29382;SDS011;16365;51.598;7.668;2023-05-07T03:46:13;7.32;;;5.68;;
29382;SDS011;16365;51.598;7.668;2023-05-07T03:48:39;9.32;;;6.78;;
29382;SDS011;16365;51.598;7.668;2023-05-07T03:51:06;10.25;;;5.75;;
29382;SDS011;16365;51.598;7.668;2023-05-07T03:53:32;12.10;;;6.30;;
29382;SDS011;16365;51.598;7.668;2023-05-07T03:55:59;9.63;;;6.00;;
29382;SDS011;16365;51.598;7.668;2023-05-07T03:58:25;9.10;;;5.90;;
29382;SDS011;16365;51.598;7.668;2023-05-07T04:00:52;10.07;;;6.00;;
29382;SDS011;16365;51.598;7.668;2023-05-07T04:03:18;7.03;;;5.65;;
29382;SDS011;16365;51.598;7.668;2023-05-07T04:05:45;9.38;;;5.88;;
29382;SDS011;16365;51.598;7.668;2023-05-07T04:08:12;8.57;;;5.82;;
29382;SDS011;16365;51.598;7.668;2023-05-07T04:10:38;7.32;;;5.68;;
29382;SDS011;16365;51.598;7.668;2023-05-07T04:13:05;9.55;;;5.70;;
29382;SDS011;16365;51.598;7.668;2023-05-07T04:15:31;9.82;;;5.72;;
29382;SDS011;16365;51.598;7.668;2023-05-07T04:17:58;10.95;;;6.05;;
29382;SDS011;16365;51.598;7.668;2023-05-07T04:20:25;9.68;;;6.13;;
29382;SDS011;16365;51.598;7.668;2023-05-07T04:22:52;11.25;;;5.95;;
29382;SDS011;16365;51.598;7.668;2023-05-07T04:25:18;9.07;;;6.10;;
29382;SDS011;16365;51.598;7.668;2023-05-07T04:27:44;7.70;;;5.78;;
29382;SDS011;16365;51.598;7.668;2023-05-07T04:30:11;8.25;;;5.65;;
29382;SDS011;16365;51.598;7.668;2023-05-07T04:32:39;11.73;;;6.00;;
29382;SDS011;16365;51.598;7.668;2023-05-07T04:35:06;13.63;;;5.88;;
29382;SDS011;16365;51.598;7.668;2023-05-07T04:37:33;10.45;;;6.40;;
29382;SDS011;16365;51.598;7.668;2023-05-07T04:39:59;9.40;;;6.13;;
29382;SDS011;16365;51.598;7.668;2023-05-07T04:42:26;11.30;;;6.20;;
29382;SDS011;16365;51.598;7.668;2023-05-07T04:44:53;7.22;;;5.95;;
29382;SDS011;16365;51.598;7.668;2023-05-07T04:47:20;8.48;;;6.60;;
29382;SDS011;16365;51.598;7.668;2023-05-07T04:49:46;10.10;;;6.35;;
29382;SDS011;16365;51.598;7.668;2023-05-07T04:52:13;9.80;;;6.57;;
29382;SDS011;16365;51.598;7.668;2023-05-07T04:54:39;12.10;;;6.28;;
29382;SDS011;16365;51.598;7.668;2023-05-07T04:57:06;10.43;;;6.88;;
29382;SDS011;16365;51.598;7.668;2023-05-07T04:59:33;10.35;;;7.35;;
29382;SDS011;16365;51.598;7.668;2023-05-07T05:01:59;10.45;;;6.78;;
29382;SDS011;16365;51.598;7.668;2023-05-07T05:04:26;11.43;;;7.38;;
29382;SDS011;16365;51.598;7.668;2023-05-07T05:06:53;12.40;;;7.57;;
29382;SDS011;16365;51.598;7.668;2023-05-07T05:09:19;9.77;;;7.82;;
29382;SDS011;16365;51.598;7.668;2023-05-07T05:11:46;11.32;;;7.57;;
29382;SDS011;16365;51.598;7.668;2023-05-07T05:14:13;12.52;;;8.20;;
29382;SDS011;16365;51.598;7.668;2023-05-07T05:16:40;11.75;;;7.85;;
29382;SDS011;16365;51.598;7.668;2023-05-07T05:19:06;15.57;;;8.20;;
29382;SDS011;16365;51.598;7.668;2023-05-07T05:21:33;11.23;;;8.75;;
29382;SDS011;16365;51.598;7.668;2023-05-07T05:23:59;14.50;;;9.85;;
29382;SDS011;16365;51.598;7.668;2023-05-07T05:26:26;15.07;;;9.25;;
29382;SDS011;16365;51.598;7.668;2023-05-07T05:28:52;11.38;;;8.73;;
29382;SDS011;16365;51.598;7.668;2023-05-07T05:31:18;13.93;;;9.50;;
29382;SDS011;16365;51.598;7.668;2023-05-07T05:33:45;13.50;;;9.50;;
29382;SDS011;16365;51.598;7.668;2023-05-07T05:36:12;12.50;;;9.25;;
29382;SDS011;16365;51.598;7.668;2023-05-07T05:38:39;13.77;;;10.20;;
29382;SDS011;16365;51.598;7.668;2023-05-07T05:41:06;15.60;;;10.70;;
29382;SDS011;16365;51.598;7.668;2023-05-07T05:43:33;15.73;;;10.43;;
29382;SDS011;16365;51.598;7.668;2023-05-07T05:45:59;13.80;;;10.88;;
29382;SDS011;16365;51.598;7.668;2023-05-07T05:48:28;20.42;;;11.15;;
29382;SDS011;16365;51.598;7.668;2023-05-07T05:50:54;15.68;;;11.43;;
29382;SDS011;16365;51.598;7.668;2023-05-07T05:53:21;22.30;;;11.82;;
29382;SDS011;16365;51.598;7.668;2023-05-07T05:55:47;19.10;;;12.23;;
29382;SDS011;16365;51.598;7.668;2023-05-07T05:58:14;18.55;;;12.20;;
29382;SDS011;16365;51.598;7.668;2023-05-07T06:00:41;18.88;;;12.88;;
29382;SDS011;16365;51.598;7.668;2023-05-07T06:03:07;18.60;;;12.45;;
29382;SDS011;16365;51.598;7.668;2023-05-07T06:05:35;16.20;;;12.80;;
29382;SDS011;16365;51.598;7.668;2023-05-07T06:08:01;19.27;;;12.75;;
29382;SDS011;16365;51.598;7.668;2023-05-07T06:10:29;17.85;;;13.32;;
29382;SDS011;16365;51.598;7.668;2023-05-07T06:12:56;20.02;;;13.20;;
29382;SDS011;16365;51.598;7.668;2023-05-07T06:15:23;17.05;;;12.50;;
29382;SDS011;16365;51.598;7.668;2023-05-07T06:17:49;17.92;;;13.60;;
29382;SDS011;16365;51.598;7.668;2023-05-07T06:20:16;18.75;;;13.05;;
29382;SDS011;16365;51.598;7.668;2023-05-07T06:22:42;20.48;;;13.57;;
29382;SDS011;16365;51.598;7.668;2023-05-07T06:25:09;19.60;;;13.80;;
29382;SDS011;16365;51.598;7.668;2023-05-07T06:27:35;21.90;;;14.35;;
29382;SDS011;16365;51.598;7.668;2023-05-07T06:30:02;19.42;;;13.75;;
29382;SDS011;16365;51.598;7.668;2023-05-07T06:32:28;17.83;;;14.20;;
29382;SDS011;16365;51.598;7.668;2023-05-07T06:34:55;22.15;;;15.35;;
29382;SDS011;16365;51.598;7.668;2023-05-07T06:37:22;21.58;;;14.93;;
29382;SDS011;16365;51.598;7.668;2023-05-07T06:39:48;21.40;;;15.45;;
29382;SDS011;16365;51.598;7.668;2023-05-07T06:42:18;21.63;;;15.13;;
29382;SDS011;16365;51.598;7.668;2023-05-07T06:44:44;19.70;;;15.20;;
29382;SDS011;16365;51.598;7.668;2023-05-07T06:47:11;22.33;;;15.30;;
29382;SDS011;16365;51.598;7.668;2023-05-07T06:49:41;21.30;;;15.18;;
29382;SDS011;16365;51.598;7.668;2023-05-07T06:52:07;23.45;;;15.20;;
29382;SDS011;16365;51.598;7.668;2023-05-07T06:54:34;24.65;;;15.95;;
29382;SDS011;16365;51.598;7.668;2023-05-07T06:57:00;19.00;;;15.23;;
29382;SDS011;16365;51.598;7.668;2023-05-07T06:59:26;21.77;;;15.40;;
29382;SDS011;16365;51.598;7.668;2023-05-07T07:01:53;22.73;;;15.15;;
29382;SDS011;16365;51.598;7.668;2023-05-07T07:04:20;21.85;;;16.05;;
29382;SDS011;16365;51.598;7.668;2023-05-07T07:06:49;21.90;;;15.88;;
29382;SDS011;16365;51.598;7.668;2023-05-07T07:09:17;22.35;;;16.58;;
29382;SDS011;16365;51.598;7.668;2023-05-07T07:11:45;25.77;;;16.85;;
29382;SDS011;16365;51.598;7.668;2023-05-07T07:14:13;24.83;;;15.27;;
29382;SDS011;16365;51.598;7.668;2023-05-07T07:16:40;22.58;;;15.60;;
29382;SDS011;16365;51.598;7.668;2023-05-07T07:19:07;25.55;;;17.15;;
29382;SDS011;16365;51.598;7.668;2023-05-07T07:21:34;22.27;;;16.10;;
29382;SDS011;16365;51.598;7.668;2023-05-07T07:24:02;22.88;;;15.77;;
29382;SDS011;16365;51.598;7.668;2023-05-07T07:26:28;20.55;;;15.60;;
29382;SDS011;16365;51.598;7.668;2023-05-07T07:28:55;25.67;;;15.75;;
29382;SDS011;16365;51.598;7.668;2023-05-07T07:31:21;20.65;;;15.88;;
29382;SDS011;16365;51.598;7.668;2023-05-07T07:33:47;21.67;;;16.38;;
29382;SDS011;16365;51.598;7.668;2023-05-07T07:36:18;28.30;;;17.00;;
29382;SDS011;16365;51.598;7.668;2023-05-07T07:38:44;23.80;;;15.07;;
29382;SDS011;16365;51.598;7.668;2023-05-07T07:41:11;24.67;;;16.48;;
29382;SDS011;16365;51.598;7.668;2023-05-07T07:43:37;23.98;;;16.42;;
29382;SDS011;16365;51.598;7.668;2023-05-07T07:46:03;27.58;;;16.58;;
29382;SDS011;16365;51.598;7.668;2023-05-07T07:48:30;22.92;;;15.68;;
29382;SDS011;16365;51.598;7.668;2023-05-07T07:50:56;22.63;;;15.88;;
29382;SDS011;16365;51.598;7.668;2023-05-07T07:53:23;25.30;;;16.55;;
29382;SDS011;16365;51.598;7.668;2023-05-07T07:55:49;22.23;;;16.55;;
29382;SDS011;16365;51.598;7.668;2023-05-07T07:58:15;26.25;;;16.65;;
29382;SDS011;16365;51.598;7.668;2023-05-07T08:00:43;23.30;;;16.73;;
29382;SDS011;16365;51.598;7.668;2023-05-07T08:03:10;22.38;;;16.20;;
29382;SDS011;16365;51.598;7.668;2023-05-07T08:05:37;23.33;;;16.45;;
29382;SDS011;16365;51.598;7.668;2023-05-07T08:08:05;21.38;;;16.55;;
29382;SDS011;16365;51.598;7.668;2023-05-07T08:10:32;24.45;;;16.38;;
29382;SDS011;16365;51.598;7.668;2023-05-07T08:13:01;24.77;;;15.80;;
29382;SDS011;16365;51.598;7.668;2023-05-07T08:15:30;22.75;;;15.65;;
29382;SDS011;16365;51.598;7.668;2023-05-07T08:17:57;23.08;;;15.23;;
29382;SDS011;16365;51.598;7.668;2023-05-07T08:20:26;21.45;;;14.85;;
29382;SDS011;16365;51.598;7.668;2023-05-07T08:22:54;26.33;;;16.40;;
29382;SDS011;16365;51.598;7.668;2023-05-07T08:25:20;21.80;;;16.10;;
29382;SDS011;16365;51.598;7.668;2023-05-07T08:27:48;19.85;;;15.45;;
29382;SDS011;16365;51.598;7.668;2023-05-07T08:30:15;25.88;;;14.95;;
29382;SDS011;16365;51.598;7.668;2023-05-07T08:32:41;21.58;;;15.63;;
29382;SDS011;16365;51.598;7.668;2023-05-07T08:35:08;18.90;;;14.43;;
29382;SDS011;16365;51.598;7.668;2023-05-07T08:37:35;21.50;;;14.35;;
29382;SDS011;16365;51.598;7.668;2023-05-07T08:40:01;18.15;;;13.43;;
29382;SDS011;16365;51.598;7.668;2023-05-07T08:42:28;22.05;;;14.25;;
29382;SDS011;16365;51.598;7.668;2023-05-07T08:44:57;21.23;;;14.18;;
29382;SDS011;16365;51.598;7.668;2023-05-07T08:47:27;20.98;;;15.73;;
29382;SDS011;16365;51.598;7.668;2023-05-07T08:50:01;23.00;;;15.13;;
29382;SDS011;16365;51.598;7.668;2023-05-07T08:52:28;26.65;;;16.25;;
29382;SDS011;16365;51.598;7.668;2023-05-07T08:54:54;20.90;;;14.75;;
29382;SDS011;16365;51.598;7.668;2023-05-07T08:57:21;22.00;;;15.18;;
29382;SDS011;16365;51.598;7.668;2023-05-07T08:59:49;23.55;;;16.08;;
29382;SDS011;16365;51.598;7.668;2023-05-07T09:02:16;23.98;;;17.17;;
29382;SDS011;16365;51.598;7.668;2023-05-07T09:04:44;27.50;;;16.58;;
29382;SDS011;16365;51.598;7.668;2023-05-07T09:07:10;22.25;;;16.20;;
29382;SDS011;16365;51.598;7.668;2023-05-07T09:09:37;24.50;;;17.10;;
29382;SDS011;16365;51.598;7.668;2023-05-07T09:12:03;26.95;;;17.65;;
29382;SDS011;16365;51.598;7.668;2023-05-07T09:14:30;24.23;;;16.50;;
29382;SDS011;16365;51.598;7.668;2023-05-07T09:16:57;27.25;;;17.40;;
29382;SDS011;16365;51.598;7.668;2023-05-07T09:19:23;27.50;;;17.90;;
29382;SDS011;16365;51.598;7.668;2023-05-07T09:21:57;23.17;;;17.15;;
29382;SDS011;16365;51.598;7.668;2023-05-07T09:24:28;22.42;;;16.58;;
29382;SDS011;16365;51.598;7.668;2023-05-07T09:26:59;23.05;;;15.30;;
29382;SDS011;16365;51.598;7.668;2023-05-07T09:29:27;22.85;;;16.63;;
29382;SDS011;16365;51.598;7.668;2023-05-07T09:32:01;24.30;;;16.95;;
29382;SDS011;16365;51.598;7.668;2023-05-07T09:34:31;27.50;;;17.05;;
29382;SDS011;16365;51.598;7.668;2023-05-07T09:37:04;23.15;;;17.23;;
29382;SDS011;16365;51.598;7.668;2023-05-07T09:39:40;27.27;;;17.95;;
29382;SDS011;16365;51.598;7.668;2023-05-07T09:42:07;34.17;;;18.25;;
29382;SDS011;16365;51.598;7.668;2023-05-07T09:44:34;25.33;;;17.95;;
29382;SDS011;16365;51.598;7.668;2023-05-07T09:47:02;25.52;;;17.52;;
29382;SDS011;16365;51.598;7.668;2023-05-07T09:49:33;25.17;;;17.60;;
29382;SDS011;16365;51.598;7.668;2023-05-07T09:52:03;24.80;;;16.80;;
29382;SDS011;16365;51.598;7.668;2023-05-07T09:54:36;23.77;;;16.73;;
29382;SDS011;16365;51.598;7.668;2023-05-07T09:57:04;24.30;;;16.58;;
29382;SDS011;16365;51.598;7.668;2023-05-07T09:59:33;24.65;;;16.95;;
29382;SDS011;16365;51.598;7.668;2023-05-07T10:02:01;25.98;;;18.13;;
29382;SDS011;16365;51.598;7.668;2023-05-07T10:04:30;26.00;;;17.25;;
29382;SDS011;16365;51.598;7.668;2023-05-07T10:06:58;24.00;;;16.67;;
29382;SDS011;16365;51.598;7.668;2023-05-07T10:09:25;25.45;;;16.58;;
29382;SDS011;16365;51.598;7.668;2023-05-07T10:11:52;30.35;;;16.65;;
29382;SDS011;16365;51.598;7.668;2023-05-07T10:14:20;25.63;;;16.88;;
29382;SDS011;16365;51.598;7.668;2023-05-07T10:16:47;24.05;;;17.08;;
29382;SDS011;16365;51.598;7.668;2023-05-07T10:19:14;23.40;;;17.60;;
29382;SDS011;16365;51.598;7.668;2023-05-07T10:21:44;25.23;;;17.27;;
29382;SDS011;16365;51.598;7.668;2023-05-07T10:24:21;29.30;;;18.67;;
29382;SDS011;16365;51.598;7.668;2023-05-07T10:26:53;27.73;;;17.27;;
29382;SDS011;16365;51.598;7.668;2023-05-07T10:29:30;24.05;;;16.42;;
29382;SDS011;16365;51.598;7.668;2023-05-07T10:35:14;26.40;;;17.50;;
29382;SDS011;16365;51.598;7.668;2023-05-07T10:37:44;25.38;;;18.00;;
29382;SDS011;16365;51.598;7.668;2023-05-07T10:40:11;26.40;;;17.70;;
29382;SDS011;16365;51.598;7.668;2023-05-07T10:42:38;26.38;;;15.90;;
29382;SDS011;16365;51.598;7.668;2023-05-07T10:45:15;24.67;;;16.40;;
29382;SDS011;16365;51.598;7.668;2023-05-07T10:51:17;17.80;;;13.15;;
29382;SDS011;16365;51.598;7.668;2023-05-07T10:53:48;23.63;;;14.70;;
29382;SDS011;16365;51.598;7.668;2023-05-07T10:58:45;19.70;;;14.80;;
29382;SDS011;16365;51.598;7.668;2023-05-07T11:01:12;23.60;;;15.65;;
29382;SDS011;16365;51.598;7.668;2023-05-07T11:06:39;22.23;;;15.18;;
29382;SDS011;16365;51.598;7.668;2023-05-07T11:09:05;22.90;;;15.45;;
29382;SDS011;16365;51.598;7.668;2023-05-07T11:11:45;18.88;;;13.32;;
29382;SDS011;16365;51.598;7.668;2023-05-07T11:14:14;19.70;;;11.95;;
29382;SDS011;16365;51.598;7.668;2023-05-07T11:17:01;21.08;;;13.90;;
29382;SDS011;16365;51.598;7.668;2023-05-07T11:19:48;20.65;;;15.40;;
29382;SDS011;16365;51.598;7.668;2023-05-07T11:24:59;21.38;;;14.15;;
29382;SDS011;16365;51.598;7.668;2023-05-07T11:27:26;20.77;;;13.20;;
29382;SDS011;16365;51.598;7.668;2023-05-07T11:29:53;19.02;;;12.88;;
29382;SDS011;16365;51.598;7.668;2023-05-07T11:32:28;18.70;;;12.90;;
29382;SDS011;16365;51.598;7.668;2023-05-07T11:34:57;15.20;;;11.15;;
29382;SDS011;16365;51.598;7.668;2023-05-07T11:37:24;15.70;;;11.23;;
29382;SDS011;16365;51.598;7.668;2023-05-07T11:42:33;15.70;;;10.82;;
29382;SDS011;16365;51.598;7.668;2023-05-07T11:45:01;17.27;;;11.25;;
29382;SDS011;16365;51.598;7.668;2023-05-07T11:47:31;19.95;;;11.38;;
29382;SDS011;16365;51.598;7.668;2023-05-07T11:50:01;14.27;;;10.27;;
29382;SDS011;16365;51.598;7.668;2023-05-07T11:52:33;13.48;;;10.02;;
29382;SDS011;16365;51.598;7.668;2023-05-07T11:55:00;12.02;;;9.35;;
29382;SDS011;16365;51.598;7.668;2023-05-07T11:57:32;13.18;;;8.77;;
29382;SDS011;16365;51.598;7.668;2023-05-07T12:00:00;10.40;;;7.13;;
29382;SDS011;16365;51.598;7.668;2023-05-07T12:02:38;11.00;;;7.30;;
29382;SDS011;16365;51.598;7.668;2023-05-07T12:05:05;9.38;;;7.38;;
29382;SDS011;16365;51.598;7.668;2023-05-07T12:07:33;16.27;;;8.85;;
29382;SDS011;16365;51.598;7.668;2023-05-07T12:10:03;13.82;;;9.40;;
29382;SDS011;16365;51.598;7.668;2023-05-07T12:12:31;10.48;;;7.18;;
29382;SDS011;16365;51.598;7.668;2023-05-07T12:14:57;13.60;;;9.15;;
29382;SDS011;16365;51.598;7.668;2023-05-07T12:17:24;13.52;;;8.85;;
29382;SDS011;16365;51.598;7.668;2023-05-07T12:19:51;13.50;;;8.75;;
29382;SDS011;16365;51.598;7.668;2023-05-07T12:22:19;14.88;;;9.00;;
29382;SDS011;16365;51.598;7.668;2023-05-07T12:24:50;11.05;;;7.97;;
29382;SDS011;16365;51.598;7.668;2023-05-07T12:27:23;13.10;;;8.48;;
29382;SDS011;16365;51.598;7.668;2023-05-07T12:29:50;11.23;;;7.68;;
29382;SDS011;16365;51.598;7.668;2023-05-07T12:32:18;10.88;;;8.10;;
29382;SDS011;16365;51.598;7.668;2023-05-07T12:34:45;11.88;;;8.52;;
29382;SDS011;16365;51.598;7.668;2023-05-07T12:37:15;11.63;;;7.55;;
29382;SDS011;16365;51.598;7.668;2023-05-07T12:39:49;15.55;;;9.73;;
29382;SDS011;16365;51.598;7.668;2023-05-07T12:42:32;12.10;;;8.52;;
29382;SDS011;16365;51.598;7.668;2023-05-07T12:45:12;12.32;;;8.55;;
29382;SDS011;16365;51.598;7.668;2023-05-07T12:47:46;9.70;;;7.53;;
29382;SDS011;16365;51.598;7.668;2023-05-07T12:50:13;11.65;;;7.70;;
29382;SDS011;16365;51.598;7.668;2023-05-07T12:52:40;11.88;;;7.10;;
29382;SDS011;16365;51.598;7.668;2023-05-07T12:55:08;11.98;;;7.90;;
29382;SDS011;16365;51.598;7.668;2023-05-07T12:57:43;11.57;;;7.75;;
29382;SDS011;16365;51.598;7.668;2023-05-07T13:00:14;10.30;;;7.90;;
29382;SDS011;16365;51.598;7.668;2023-05-07T13:02:42;14.95;;;8.52;;
29382;SDS011;16365;51.598;7.668;2023-05-07T13:05:13;9.52;;;7.55;;
29382;SDS011;16365;51.598;7.668;2023-05-07T13:07:40;16.70;;;9.65;;
29382;SDS011;16365;51.598;7.668;2023-05-07T13:10:18;14.23;;;9.82;;
29382;SDS011;16365;51.598;7.668;2023-05-07T13:12:44;14.52;;;10.18;;
29382;SDS011;16365;51.598;7.668;2023-05-07T13:15:10;14.75;;;10.55;;
29382;SDS011;16365;51.598;7.668;2023-05-07T13:17:37;16.42;;;10.25;;
29382;SDS011;16365;51.598;7.668;2023-05-07T13:20:06;13.27;;;9.80;;
29382;SDS011;16365;51.598;7.668;2023-05-07T13:22:34;12.80;;;9.57;;
29382;SDS011;16365;51.598;7.668;2023-05-07T13:25:01;15.55;;;9.75;;
29382;SDS011;16365;51.598;7.668;2023-05-07T13:27:27;13.05;;;9.80;;
29382;SDS011;16365;51.598;7.668;2023-05-07T13:29:53;13.57;;;10.70;;
29382;SDS011;16365;51.598;7.668;2023-05-07T13:32:21;14.35;;;10.48;;
29382;SDS011;16365;51.598;7.668;2023-05-07T13:34:48;12.77;;;9.27;;
29382;SDS011;16365;51.598;7.668;2023-05-07T13:37:14;11.70;;;8.93;;
29382;SDS011;16365;51.598;7.668;2023-05-07T13:39:41;12.65;;;8.50;;
29382;SDS011;16365;51.598;7.668;2023-05-07T13:42:07;10.77;;;7.95;;
29382;SDS011;16365;51.598;7.668;2023-05-07T13:44:33;13.18;;;9.48;;
29382;SDS011;16365;51.598;7.668;2023-05-07T13:47:00;11.23;;;9.23;;
29382;SDS011;16365;51.598;7.668;2023-05-07T13:49:27;19.20;;;8.30;;
29382;SDS011;16365;51.598;7.668;2023-05-07T13:51:53;9.90;;;7.28;;
29382;SDS011;16365;51.598;7.668;2023-05-07T13:54:19;10.55;;;7.05;;
29382;SDS011;16365;51.598;7.668;2023-05-07T13:56:46;9.82;;;6.78;;
29382;SDS011;16365;51.598;7.668;2023-05-07T13:59:12;8.77;;;6.43;;
29382;SDS011;16365;51.598;7.668;2023-05-07T14:01:40;8.38;;;6.20;;
29382;SDS011;16365;51.598;7.668;2023-05-07T14:04:07;8.73;;;6.03;;
29382;SDS011;16365;51.598;7.668;2023-05-07T14:06:34;8.48;;;5.97;;
29382;SDS011;16365;51.598;7.668;2023-05-07T14:09:02;13.18;;;5.55;;
29382;SDS011;16365;51.598;7.668;2023-05-07T14:11:28;6.45;;;5.20;;
29382;SDS011;16365;51.598;7.668;2023-05-07T14:13:55;7.97;;;5.28;;
29382;SDS011;16365;51.598;7.668;2023-05-07T14:16:22;9.13;;;5.35;;
29382;SDS011;16365;51.598;7.668;2023-05-07T14:18:49;8.57;;;5.72;;
29382;SDS011;16365;51.598;7.668;2023-05-07T14:21:16;8.98;;;6.07;;
29382;SDS011;16365;51.598;7.668;2023-05-07T14:23:42;9.50;;;6.55;;
29382;SDS011;16365;51.598;7.668;2023-05-07T14:26:08;8.45;;;6.32;;
29382;SDS011;16365;51.598;7.668;2023-05-07T14:28:35;8.90;;;6.30;;
29382;SDS011;16365;51.598;7.668;2023-05-07T14:31:02;8.52;;;5.90;;
29382;SDS011;16365;51.598;7.668;2023-05-07T14:33:28;10.57;;;6.20;;
29382;SDS011;16365;51.598;7.668;2023-05-07T14:35:54;11.27;;;6.70;;
29382;SDS011;16365;51.598;7.668;2023-05-07T14:38:21;9.80;;;7.35;;
29382;SDS011;16365;51.598;7.668;2023-05-07T14:40:47;9.52;;;6.85;;
29382;SDS011;16365;51.598;7.668;2023-05-07T14:43:14;8.88;;;6.47;;
29382;SDS011;16365;51.598;7.668;2023-05-07T14:45:40;9.75;;;6.47;;
29382;SDS011;16365;51.598;7.668;2023-05-07T14:48:07;9.30;;;7.25;;
29382;SDS011;16365;51.598;7.668;2023-05-07T14:53:02;7.97;;;5.70;;
29382;SDS011;16365;51.598;7.668;2023-05-07T14:55:30;7.43;;;5.68;;